Time,TemperatureF,DewpointF,PressureIn,WindDirection,WindDirectionDegrees,WindSpeedMPH,WindSpeedGustMPH,Humidity,HourlyPrecipIn,Conditions,Clouds,dailyrainin,SoftwareType,DateUTC
2013-03-22 00:02:00,39.0,34.0,30.20,SE,138,0.0,3.0,81,0.00,,,0.12,,2013-03-22 07:02:00,
2013-03-22 00:11:00,39.0,34.0,30.20,SE,138,0.0,3.0,81,0.00,,,0.12,,2013-03-22 07:11:00,
2013-03-22 00:22:00,39.0,34.0,30.21,East,99,1.0,2.0,81,0.00,,,0.12,,2013-03-22 07:22:00,
2013-03-22 00:31:00,39.0,34.0,30.21,East,81,0.0,3.0,81,0.00,,,0.12,,2013-03-22 07:31:00,
2013-03-22 00:42:00,39.0,34.0,30.21,East,81,0.0,3.0,81,0.00,,,0.12,,2013-03-22 07:42:00,
2013-03-22 00:52:00,39.0,33.0,30.21,NE,51,0.0,2.0,79,0.00,,,0.12,,2013-03-22 07:52:00,
2013-03-22 01:02:00,39.0,33.0,30.21,ESE,123,0.0,4.0,78,0.00,,,0.12,,2013-03-22 08:02:00,
2013-03-22 01:12:00,39.0,33.0,30.21,ESE,123,0.0,4.0,78,0.00,,,0.12,,2013-03-22 08:12:00,
2013-03-22 01:22:00,39.0,33.0,30.21,NNW,348,2.0,3.0,79,0.00,,,0.12,,2013-03-22 08:22:00,
2013-03-22 01:31:00,37.0,32.0,30.22,NNW,346,1.0,3.0,81,0.00,,,0.12,,2013-03-22 08:31:00,
2013-03-22 01:42:00,37.0,32.0,30.22,NNW,346,1.0,3.0,81,0.00,,,0.12,,2013-03-22 08:42:00,
2013-03-22 01:52:00,37.0,32.0,30.21,North,349,0.0,3.0,82,0.00,,,0.12,,2013-03-22 08:52:00,
2013-03-22 02:01:00,36.0,31.0,30.22,North,349,0.0,2.0,83,0.00,,,0.12,,2013-03-22 09:01:00,
2013-03-22 02:11:00,36.0,31.0,30.22,North,349,0.0,2.0,83,0.00,,,0.12,,2013-03-22 09:11:00,
2013-03-22 02:22:00,36.0,32.0,30.22,NNW,335,0.0,3.0,84,0.00,,,0.12,,2013-03-22 09:22:00,
2013-03-22 02:32:00,35.0,31.0,30.22,NNE,29,2.0,3.0,84,0.00,,,0.12,,2013-03-22 09:32:00,
2013-03-22 02:42:00,35.0,31.0,30.22,NNE,29,2.0,3.0,84,0.00,,,0.12,,2013-03-22 09:42:00,
2013-03-22 02:53:00,35.0,31.0,30.22,NNE,29,1.0,3.0,85,0.00,,,0.12,,2013-03-22 09:53:00,
2013-03-22 03:02:00,34.0,30.0,30.22,North,360,1.0,2.0,86,0.00,,,0.12,,2013-03-22 10:02:00,
2013-03-22 03:12:00,34.0,30.0,30.22,North,360,1.0,2.0,86,0.00,,,0.12,,2013-03-22 10:12:00,
2013-03-22 03:22:00,33.0,30.0,30.23,North,360,1.0,3.0,87,0.00,,,0.12,,2013-03-22 10:22:00,
2013-03-22 03:32:00,33.0,30.0,30.22,North,360,2.0,3.0,87,0.00,,,0.12,,2013-03-22 10:32:00,
2013-03-22 03:42:00,33.0,30.0,30.22,North,360,2.0,3.0,87,0.00,,,0.12,,2013-03-22 10:42:00,
2013-03-22 03:52:00,32.0,29.0,30.22,North,360,2.0,3.0,87,0.00,,,0.12,,2013-03-22 10:52:00,
2013-03-22 04:02:00,32.0,29.0,30.23,North,360,2.0,3.0,88,0.00,,,0.12,,2013-03-22 11:02:00,
2013-03-22 04:12:00,32.0,29.0,30.23,North,360,2.0,3.0,88,0.00,,,0.12,,2013-03-22 11:12:00,
2013-03-22 04:22:00,31.0,28.0,30.23,North,355,3.0,4.0,88,0.00,,,0.12,,2013-03-22 11:22:00,
2013-03-22 04:32:00,31.0,28.0,30.23,North,355,3.0,3.0,88,0.00,,,0.12,,2013-03-22 11:32:00,
2013-03-22 04:42:00,31.0,28.0,30.23,North,355,3.0,3.0,88,0.00,,,0.12,,2013-03-22 11:42:00,
2013-03-22 04:52:00,31.0,28.0,30.23,NNW,344,2.0,3.0,88,0.00,,,0.12,,2013-03-22 11:52:00,
2013-03-22 05:12:00,31.0,28.0,30.24,NNW,344,2.0,3.0,89,0.00,,,0.12,,2013-03-22 12:12:00,
2013-03-22 05:22:00,31.0,28.0,30.24,NNW,344,3.0,4.0,89,0.00,,,0.12,,2013-03-22 12:22:00,
2013-03-22 05:32:00,31.0,28.0,30.24,NNW,344,2.0,3.0,89,0.00,,,0.12,,2013-03-22 12:32:00,
2013-03-22 05:42:00,31.0,28.0,30.24,NNW,344,2.0,3.0,89,0.00,,,0.12,,2013-03-22 12:42:00,
2013-03-22 05:51:00,30.0,27.0,30.24,NNW,344,3.0,3.0,89,0.00,,,0.12,,2013-03-22 12:51:00,
2013-03-22 06:02:00,31.0,28.0,30.24,NNW,344,1.0,2.0,89,0.00,,,0.12,,2013-03-22 13:02:00,
2013-03-22 06:22:00,31.0,28.0,30.25,NNW,344,2.0,3.0,90,0.00,,,0.12,,2013-03-22 13:22:00,
2013-03-22 06:32:00,32.0,29.0,30.25,NNW,344,2.0,3.0,90,0.00,,,0.12,,2013-03-22 13:32:00,
2013-03-22 06:42:00,32.0,29.0,30.25,NNW,344,2.0,3.0,90,0.00,,,0.12,,2013-03-22 13:42:00,
2013-03-22 06:52:00,31.0,28.0,30.26,NNW,344,2.0,3.0,90,0.00,,,0.12,,2013-03-22 13:52:00,
2013-03-22 07:02:00,31.0,28.0,30.26,NNW,344,2.0,3.0,90,0.00,,,0.12,,2013-03-22 14:02:00,
2013-03-22 07:11:00,31.0,28.0,30.26,NNW,344,2.0,3.0,90,0.00,,,0.12,,2013-03-22 14:11:00,
2013-03-22 07:21:00,31.0,28.0,30.26,North,355,2.0,3.0,90,0.00,,,0.12,,2013-03-22 14:21:00,
2013-03-22 07:31:00,31.0,28.0,30.25,North,355,2.0,3.0,90,0.00,,,0.12,,2013-03-22 14:31:00,
2013-03-22 07:42:00,31.0,28.0,30.25,North,355,2.0,3.0,90,0.00,,,0.12,,2013-03-22 14:42:00,
2013-03-22 07:52:00,31.0,28.0,30.26,North,355,2.0,3.0,90,0.00,,,0.12,,2013-03-22 14:52:00,
2013-03-22 08:02:00,31.0,28.0,30.26,North,355,2.0,3.0,90,0.00,,,0.12,,2013-03-22 15:02:00,
2013-03-22 08:11:00,31.0,28.0,30.26,North,355,2.0,3.0,90,0.00,,,0.12,,2013-03-22 15:11:00,
2013-03-22 08:22:00,31.0,28.0,30.27,North,355,2.0,3.0,90,0.00,,,0.12,,2013-03-22 15:22:00,
2013-03-22 08:32:00,31.0,28.0,30.27,North,355,2.0,3.0,90,0.00,,,0.12,,2013-03-22 15:32:00,
2013-03-22 08:42:00,31.0,28.0,30.27,North,355,2.0,3.0,90,0.00,,,0.12,,2013-03-22 15:42:00,
2013-03-22 08:52:00,32.0,29.0,30.27,North,355,1.0,2.0,90,0.00,,,0.12,,2013-03-22 15:52:00,
2013-03-22 09:02:00,33.0,31.0,30.27,North,355,1.0,2.0,91,0.00,,,0.12,,2013-03-22 16:02:00,
2013-03-22 09:13:00,35.0,33.0,30.28,North,355,0.0,2.0,91,0.00,,,0.12,,2013-03-22 16:13:00,
2013-03-22 09:22:00,35.0,33.0,30.28,North,355,0.0,2.0,91,0.00,,,0.12,,2013-03-22 16:22:00,
2013-03-22 09:32:00,37.0,34.0,30.28,East,93,0.0,2.0,90,0.00,,,0.12,,2013-03-22 16:32:00,
2013-03-22 09:42:00,37.0,34.0,30.28,East,93,0.0,2.0,90,0.00,,,0.12,,2013-03-22 16:42:00,
2013-03-22 09:52:00,38.0,35.0,30.29,East,99,0.0,2.0,89,0.00,,,0.12,,2013-03-22 16:52:00,
2013-03-22 10:02:00,38.0,35.0,30.29,East,99,0.0,2.0,89,0.00,,,0.12,,2013-03-22 17:02:00,
2013-03-22 10:12:00,38.0,35.0,30.29,East,99,0.0,2.0,89,0.00,,,0.12,,2013-03-22 17:12:00,
2013-03-22 10:22:00,38.0,35.0,30.29,East,99,0.0,2.0,89,0.00,,,0.12,,2013-03-22 17:22:00,
2013-03-22 13:52:00,48.0,29.0,30.32,SSE,166,3.0,5.0,48,0.00,,,0.12,,2013-03-22 20:52:00,
2013-03-22 14:02:00,49.0,30.0,30.32,South,173,2.0,4.0,47,0.00,,,0.12,,2013-03-22 21:02:00,
2013-03-22 14:12:00,50.0,29.0,30.32,SSE,161,4.0,5.0,44,0.00,,,0.12,,2013-03-22 21:12:00,
2013-03-22 14:22:00,50.0,29.0,30.32,SSE,161,4.0,5.0,44,0.00,,,0.12,,2013-03-22 21:22:00,
2013-03-22 14:32:00,47.0,27.0,30.32,South,181,3.0,5.0,45,0.00,,,0.12,,2013-03-22 21:32:00,
2013-03-22 14:42:00,47.0,27.0,30.32,South,181,3.0,5.0,45,0.00,,,0.12,,2013-03-22 21:42:00,
2013-03-22 14:53:00,46.0,25.0,30.32,South,179,3.0,5.0,43,0.00,,,0.12,,2013-03-22 21:53:00,
2013-03-22 15:02:00,46.0,26.0,30.33,South,173,3.0,5.0,45,0.00,,,0.12,,2013-03-22 22:02:00,
2013-03-22 15:12:00,46.0,26.0,30.33,South,173,3.0,5.0,45,0.00,,,0.12,,2013-03-22 22:12:00,
2013-03-22 15:22:00,47.0,30.0,30.33,SSE,153,4.0,6.0,52,0.00,,,0.12,,2013-03-22 22:22:00,
2013-03-22 15:32:00,46.0,29.0,30.33,South,179,4.0,7.0,52,0.00,,,0.12,,2013-03-22 22:32:00,
2013-03-22 15:42:00,46.0,29.0,30.33,South,179,4.0,7.0,52,0.00,,,0.12,,2013-03-22 22:42:00,
2013-03-22 15:52:00,47.0,30.0,30.33,SE,138,4.0,6.0,52,0.00,,,0.12,,2013-03-22 22:52:00,
2013-03-22 16:02:00,46.0,31.0,30.32,SSE,161,4.0,7.0,55,0.00,,,0.12,,2013-03-22 23:02:00,
2013-03-22 16:12:00,46.0,31.0,30.32,SSE,161,4.0,7.0,55,0.00,,,0.12,,2013-03-22 23:12:00,
2013-03-22 16:22:00,47.0,31.0,30.33,SSE,161,3.0,5.0,54,0.00,,,0.11,,2013-03-22 23:22:00,
2013-03-22 16:32:00,46.0,30.0,30.33,SSE,159,3.0,5.0,54,0.00,,,0.11,,2013-03-22 23:32:00,
2013-03-22 16:42:00,46.0,30.0,30.33,SSE,159,3.0,5.0,54,0.00,,,0.11,,2013-03-22 23:42:00,
2013-03-22 16:52:00,46.0,29.0,30.33,South,186,1.0,4.0,51,0.00,,,0.11,,2013-03-22 23:52:00,
2013-03-22 17:01:00,46.0,29.0,30.33,SSE,165,2.0,4.0,51,0.00,,,0.11,,2013-03-23 00:01:00,
2013-03-22 17:12:00,46.0,29.0,30.33,SSE,165,2.0,4.0,51,0.00,,,0.11,,2013-03-23 00:12:00,
2013-03-22 17:22:00,45.0,28.0,30.34,SSE,161,1.0,4.0,51,0.00,,,0.10,,2013-03-23 00:22:00,
2013-03-22 17:32:00,46.0,30.0,30.34,SSE,163,5.0,7.0,54,0.00,,,0.10,,2013-03-23 00:32:00,
2013-03-22 17:42:00,46.0,30.0,30.34,SSE,163,5.0,7.0,54,0.00,,,0.10,,2013-03-23 00:42:00,
2013-03-22 17:52:00,44.0,32.0,30.34,SE,142,4.0,6.0,62,0.00,,,0.10,,2013-03-23 00:52:00,
2013-03-22 18:03:00,44.0,33.0,30.33,SSE,161,7.0,9.0,64,0.00,,,0.10,,2013-03-23 01:03:00,
2013-03-22 18:11:00,44.0,33.0,30.33,SSE,161,7.0,9.0,64,0.00,,,0.10,,2013-03-23 01:11:00,
2013-03-22 18:22:00,44.0,33.0,30.34,SSE,162,5.0,7.0,64,0.00,,,0.10,,2013-03-23 01:22:00,
2013-03-22 18:31:00,44.0,33.0,30.34,SSE,155,5.0,9.0,64,0.00,,,0.05,,2013-03-23 01:31:00,
2013-03-22 18:42:00,44.0,33.0,30.34,SSE,155,5.0,9.0,64,0.00,,,0.05,,2013-03-23 01:42:00,
2013-03-22 18:52:00,43.0,32.0,30.34,SSE,149,4.0,7.0,66,0.00,,,0.05,,2013-03-23 01:52:00,
2013-03-22 19:02:00,43.0,32.0,30.34,SSE,163,3.0,5.0,64,0.00,,,0.05,,2013-03-23 02:02:00,
2013-03-22 19:12:00,43.0,32.0,30.34,SSE,163,3.0,5.0,64,0.00,,,0.05,,2013-03-23 02:12:00,
2013-03-22 19:22:00,43.0,32.0,30.33,SSE,153,0.0,5.0,64,0.00,,,0.01,,2013-03-23 02:22:00,
2013-03-22 19:31:00,41.0,32.0,30.34,SSE,153,1.0,2.0,70,0.00,,,0.01,,2013-03-23 02:31:00,
2013-03-22 19:42:00,41.0,32.0,30.34,SSE,153,1.0,2.0,70,0.00,,,0.01,,2013-03-23 02:42:00,
2013-03-22 19:52:00,39.0,31.0,30.34,SSE,153,1.0,2.0,72,0.00,,,0.01,,2013-03-23 02:52:00,
2013-03-22 20:02:00,38.0,31.0,30.34,SSE,153,1.0,2.0,76,0.00,,,0.01,,2013-03-23 03:02:00,
2013-03-22 20:11:00,38.0,31.0,30.34,SSE,153,1.0,2.0,76,0.00,,,0.01,,2013-03-23 03:11:00,
2013-03-22 20:22:00,38.0,31.0,30.34,SSE,153,1.0,2.0,76,0.00,,,0.01,,2013-03-23 03:22:00,
2013-03-22 20:32:00,38.0,31.0,30.34,SSE,153,1.0,2.0,76,0.00,,,0.01,,2013-03-23 03:32:00,
2013-03-22 20:42:00,38.0,31.0,30.34,SSE,153,1.0,2.0,76,0.00,,,0.01,,2013-03-23 03:42:00,
2013-03-22 20:52:00,38.0,31.0,30.34,SSE,153,1.0,2.0,76,0.00,,,0.01,,2013-03-23 03:52:00,
2013-03-22 21:02:00,35.0,30.0,30.36,SSE,153,1.0,2.0,82,0.00,,,0.00,,2013-03-23 04:02:00,
2013-03-22 21:12:00,35.0,30.0,30.36,SSE,153,1.0,2.0,82,0.00,,,0.00,,2013-03-23 04:12:00,
2013-03-22 21:23:00,35.0,30.0,30.37,SSE,153,2.0,3.0,83,0.00,,,0.00,,2013-03-23 04:23:00,
2013-03-22 21:32:00,34.0,29.0,30.37,SSE,153,2.0,3.0,83,0.00,,,0.00,,2013-03-23 04:32:00,
2013-03-22 21:42:00,34.0,29.0,30.37,SSE,153,2.0,3.0,83,0.00,,,0.00,,2013-03-23 04:42:00,
2013-03-22 21:53:00,34.0,30.0,30.37,SSE,153,2.0,3.0,84,0.00,,,0.00,,2013-03-23 04:53:00,
2013-03-22 22:02:00,34.0,30.0,30.37,SSE,153,3.0,4.0,85,0.00,,,0.00,,2013-03-23 05:02:00,
2013-03-22 22:11:00,34.0,30.0,30.37,SSE,153,3.0,4.0,85,0.00,,,0.00,,2013-03-23 05:11:00,
2013-03-22 22:22:00,34.0,30.0,30.37,SSE,153,3.0,3.0,85,0.00,,,0.00,,2013-03-23 05:22:00,
2013-03-22 22:32:00,33.0,29.0,30.37,SSE,153,3.0,4.0,85,0.00,,,0.00,,2013-03-23 05:32:00,
2013-03-22 22:42:00,33.0,29.0,30.37,SSE,153,3.0,4.0,85,0.00,,,0.00,,2013-03-23 05:42:00,
2013-03-22 22:52:00,33.0,29.0,30.37,SSE,153,2.0,3.0,86,0.00,,,0.00,,2013-03-23 05:52:00,
2013-03-22 23:02:00,33.0,29.0,30.37,SSE,153,3.0,3.0,86,0.00,,,0.00,,2013-03-23 06:02:00,
2013-03-22 23:12:00,33.0,29.0,30.37,SSE,153,3.0,3.0,86,0.00,,,0.00,,2013-03-23 06:12:00,
2013-03-22 23:22:00,32.0,28.0,30.37,SSE,153,3.0,4.0,86,0.00,,,0.00,,2013-03-23 06:22:00,
2013-03-22 23:31:00,32.0,29.0,30.37,SSE,153,3.0,3.0,87,0.00,,,0.00,,2013-03-23 06:31:00,
2013-03-22 23:42:00,32.0,29.0,30.37,SSE,153,3.0,3.0,87,0.00,,,0.00,,2013-03-23 06:42:00,
2013-03-22 23:52:00,32.0,29.0,30.38,SSE,153,3.0,4.0,87,0.00,,,0.00,,2013-03-23 06:52:00,